Time;durP1;ratioP1;P1;durP2;ratioP2;P2;SDS_P1;SDS_P2;PMS_P1;PMS_P2;Temp;Humidity;BMP_temperature;BMP_pressure;BME280_temperature;BME280_humidity;BME280_pressure;Samples;Min_cycle;Max_cycle;Signal;HPM_P1;HPM_P2
2022/11/23 00:01:17;;;;;;;;;;;3.90;99.90;;;;;;1973938;73;20188;-78
2022/11/23 00:03:44;;;;;;;;;;;3.90;99.90;;;;;;1973906;73;20114;-77
2022/11/23 00:06:11;;;;;;;;;;;3.90;99.90;;;;;;1973882;73;20156;-79
2022/11/23 00:08:38;;;;;;;;;;;3.90;99.90;;;;;;1973890;73;20136;-78
2022/11/23 00:11:04;;;;;;;;;;;3.80;99.90;;;;;;1973969;73;20167;-80
2022/11/23 00:13:33;;;;;;;;;;;3.80;99.90;;;;;;1973901;73;20144;-78
2022/11/23 00:16:00;;;;;;;;;;;3.80;99.90;;;;;;1973641;73;20127;-80
2022/11/23 00:18:26;;;;;;;;;;;3.70;99.90;;;;;;1973882;73;20390;-79
2022/11/23 00:20:53;;;;;;;;;;;3.70;99.90;;;;;;1973945;73;20114;-79
2022/11/23 00:23:20;;;;;;;;;;;3.70;99.90;;;;;;1973840;73;20184;-78
2022/11/23 00:25:47;;;;;;;;;;;3.60;99.90;;;;;;1974020;73;20109;-79
2022/11/23 00:28:13;;;;;;;;;;;3.60;99.90;;;;;;1973848;73;20125;-78
2022/11/23 00:30:40;;;;;;;;;;;3.50;99.90;;;;;;1973870;73;20246;-79
2022/11/23 00:33:07;;;;;;;;;;;3.50;99.90;;;;;;1973918;73;20193;-79
2022/11/23 00:35:33;;;;;;;;;;;3.40;99.90;;;;;;1973821;73;20110;-79
2022/11/23 00:38:00;;;;;;;;;;;3.50;99.90;;;;;;1973900;73;20228;-77
2022/11/23 00:40:27;;;;;;;;;;;3.50;99.90;;;;;;1973814;73;20240;-80
2022/11/23 00:42:53;;;;;;;;;;;3.60;99.90;;;;;;1973768;73;20125;-79
2022/11/23 00:45:20;;;;;;;;;;;3.60;99.90;;;;;;1973812;73;20157;-78
2022/11/23 00:47:47;;;;;;;;;;;3.60;99.90;;;;;;1973750;73;20103;-79
2022/11/23 00:50:13;;;;;;;;;;;3.70;99.90;;;;;;1973893;73;20118;-78
2022/11/23 00:52:40;;;;;;;;;;;3.80;99.90;;;;;;1973821;73;20149;-79
2022/11/23 00:55:07;;;;;;;;;;;3.70;99.90;;;;;;1973802;73;20099;-79
2022/11/23 00:57:34;;;;;;;;;;;3.70;99.90;;;;;;1973861;73;20118;-78
2022/11/23 01:00:00;;;;;;;;;;;3.80;99.90;;;;;;1973951;73;20149;-78
2022/11/23 01:02:27;;;;;;;;;;;3.70;99.90;;;;;;1973897;73;20314;-79
2022/11/23 01:04:54;;;;;;;;;;;3.60;99.90;;;;;;1973858;73;20136;-79
2022/11/23 01:07:21;;;;;;;;;;;3.60;99.90;;;;;;1973776;73;20384;-79
2022/11/23 01:09:47;;;;;;;;;;;3.60;99.90;;;;;;1973809;73;20114;-78
2022/11/23 01:12:14;;;;;;;;;;;3.60;99.90;;;;;;1973633;73;20321;-78
2022/11/23 01:14:41;;;;;;;;;;;3.50;99.90;;;;;;1973961;73;20153;-79
2022/11/23 01:17:07;;;;;;;;;;;3.50;99.90;;;;;;1973852;73;20325;-78
2022/11/23 01:19:34;;;;;;;;;;;3.60;99.90;;;;;;1973918;73;20185;-78
2022/11/23 01:22:01;;;;;;;;;;;3.60;99.90;;;;;;1973784;73;20373;-78
2022/11/23 01:24:27;;;;;;;;;;;3.60;99.90;;;;;;1973752;73;20110;-77
2022/11/23 01:26:54;;;;;;;;;;;3.60;99.90;;;;;;1973848;73;20358;-78
2022/11/23 01:29:21;;;;;;;;;;;3.60;99.90;;;;;;1973788;73;20141;-77
2022/11/23 01:31:48;;;;;;;;;;;3.60;99.90;;;;;;1973926;73;20142;-78
2022/11/23 01:34:15;;;;;;;;;;;3.70;99.90;;;;;;1973836;73;20106;-78
2022/11/23 01:36:42;;;;;;;;;;;3.70;99.90;;;;;;1973673;73;20385;-78
2022/11/23 01:39:09;;;;;;;;;;;3.80;99.90;;;;;;1973899;73;20114;-79
2022/11/23 01:41:37;;;;;;;;;;;3.80;99.90;;;;;;1973751;73;20120;-78
2022/11/23 01:44:23;;;;;;;;;;;3.80;99.90;;;;;;1973826;73;20110;-79
2022/11/23 01:46:50;;;;;;;;;;;3.70;99.90;;;;;;1973807;73;20391;-80
2022/11/23 01:49:17;;;;;;;;;;;3.70;99.90;;;;;;1973794;73;20106;-78
2022/11/23 01:51:45;;;;;;;;;;;3.80;99.90;;;;;;1973816;73;20317;-78
2022/11/23 01:54:13;;;;;;;;;;;3.80;99.90;;;;;;1973651;73;20354;-78
2022/11/23 01:56:41;;;;;;;;;;;3.90;99.90;;;;;;1973738;73;20114;-80
2022/11/23 01:59:09;;;;;;;;;;;3.90;99.90;;;;;;1973485;73;20140;-80
2022/11/23 02:01:36;;;;;;;;;;;3.90;99.90;;;;;;1973644;73;20180;-78
2022/11/23 02:04:03;;;;;;;;;;;3.90;99.90;;;;;;1973815;73;20145;-78
2022/11/23 02:06:30;;;;;;;;;;;3.90;99.90;;;;;;1973717;73;20430;-78
2022/11/23 02:08:57;;;;;;;;;;;3.90;99.90;;;;;;1973761;73;20144;-79
2022/11/23 02:11:23;;;;;;;;;;;4.00;99.90;;;;;;1973808;73;20337;-78
2022/11/23 02:13:50;;;;;;;;;;;4.00;99.90;;;;;;1973733;73;20153;-77
2022/11/23 02:16:17;;;;;;;;;;;4.10;99.90;;;;;;1973700;73;20329;-78
2022/11/23 02:18:44;;;;;;;;;;;4.10;99.90;;;;;;1973753;73;20213;-79
2022/11/23 02:21:11;;;;;;;;;;;4.10;99.90;;;;;;1973746;73;20187;-78
2022/11/23 02:23:39;;;;;;;;;;;4.20;99.90;;;;;;1973649;73;20202;-79
2022/11/23 02:26:07;;;;;;;;;;;4.10;99.90;;;;;;1973366;73;20229;-78
2022/11/23 02:28:35;;;;;;;;;;;4.00;99.90;;;;;;1973696;73;20345;-78
2022/11/23 02:31:02;;;;;;;;;;;3.90;99.90;;;;;;1973663;73;20114;-78
2022/11/23 02:33:29;;;;;;;;;;;3.90;99.90;;;;;;1973602;73;20346;-79
2022/11/23 02:35:56;;;;;;;;;;;3.90;99.90;;;;;;1973683;73;20117;-79
2022/11/23 02:38:24;;;;;;;;;;;3.80;99.90;;;;;;1973740;73;20322;-78
2022/11/23 02:40:51;;;;;;;;;;;3.60;99.90;;;;;;1973737;73;20354;-78
2022/11/23 02:43:17;;;;;;;;;;;3.70;99.90;;;;;;1973662;73;20110;-77
2022/11/23 02:45:46;;;;;;;;;;;3.70;99.90;;;;;;1973802;73;20358;-79
2022/11/23 02:48:12;;;;;;;;;;;3.50;99.90;;;;;;1973648;73;20098;-77
2022/11/23 02:50:39;;;;;;;;;;;3.30;99.90;;;;;;1973754;73;20098;-79
2022/11/23 02:53:06;;;;;;;;;;;3.40;99.90;;;;;;1973621;73;20148;-79
2022/11/23 02:55:33;;;;;;;;;;;3.40;99.90;;;;;;1973712;73;20102;-79
2022/11/23 02:57:59;;;;;;;;;;;3.40;99.90;;;;;;1973744;73;20164;-79
2022/11/23 03:00:26;;;;;;;;;;;3.40;99.90;;;;;;1973759;73;20095;-79
2022/11/23 03:02:53;;;;;;;;;;;3.30;99.90;;;;;;1973611;73;20106;-77
2022/11/23 03:05:20;;;;;;;;;;;3.30;99.90;;;;;;1973826;73;20299;-79
2022/11/23 03:07:46;;;;;;;;;;;3.30;99.90;;;;;;1973736;73;20375;-78
2022/11/23 03:10:13;;;;;;;;;;;3.30;99.90;;;;;;1973575;73;20141;-77
2022/11/23 03:12:40;;;;;;;;;;;3.20;99.90;;;;;;1973766;73;20129;-78
2022/11/23 03:15:06;;;;;;;;;;;3.10;99.90;;;;;;1973809;73;20114;-77
2022/11/23 03:17:34;;;;;;;;;;;3.00;99.90;;;;;;1973851;73;20114;-79
2022/11/23 03:20:01;;;;;;;;;;;3.00;99.90;;;;;;1973909;73;20161;-79
2022/11/23 03:22:27;;;;;;;;;;;3.00;99.90;;;;;;1973869;73;20361;-79
2022/11/23 03:24:55;;;;;;;;;;;2.90;99.90;;;;;;1973945;73;20148;-77
2022/11/23 03:27:22;;;;;;;;;;;2.90;99.90;;;;;;1973898;73;20095;-79
2022/11/23 03:29:48;;;;;;;;;;;2.80;99.90;;;;;;1973785;73;20306;-77
2022/11/23 03:32:15;;;;;;;;;;;2.80;99.90;;;;;;1973996;73;20103;-78
2022/11/23 03:34:42;;;;;;;;;;;2.80;99.90;;;;;;1973722;73;20313;-78
2022/11/23 03:37:08;;;;;;;;;;;2.80;99.90;;;;;;1973823;73;20153;-78
2022/11/23 03:39:35;;;;;;;;;;;2.80;99.90;;;;;;1973823;73;20346;-78
2022/11/23 03:42:02;;;;;;;;;;;2.80;99.90;;;;;;1973759;73;20114;-77
2022/11/23 03:44:28;;;;;;;;;;;2.80;99.90;;;;;;1973752;73;20208;-77
2022/11/23 03:46:55;;;;;;;;;;;2.80;99.90;;;;;;1973809;73;20110;-78
2022/11/23 03:49:22;;;;;;;;;;;2.80;99.90;;;;;;1973770;73;20157;-78
2022/11/23 03:51:49;;;;;;;;;;;3.00;99.90;;;;;;1973736;73;20110;-78
2022/11/23 03:54:15;;;;;;;;;;;3.00;99.90;;;;;;1973784;73;20152;-77
2022/11/23 03:56:42;;;;;;;;;;;3.10;99.90;;;;;;1973829;73;20176;-77
2022/11/23 03:59:09;;;;;;;;;;;3.20;99.90;;;;;;1973828;73;20103;-78
2022/11/23 04:01:35;;;;;;;;;;;3.10;99.90;;;;;;1973922;73;20375;-78
2022/11/23 04:04:02;;;;;;;;;;;3.30;99.90;;;;;;1973742;73;20160;-78
2022/11/23 04:06:29;;;;;;;;;;;3.20;99.90;;;;;;1973939;73;20329;-78
2022/11/23 04:08:56;;;;;;;;;;;3.20;99.90;;;;;;1973845;73;20110;-78
2022/11/23 04:11:22;;;;;;;;;;;3.30;99.90;;;;;;1973878;73;20113;-78
2022/11/23 04:13:49;;;;;;;;;;;3.30;99.90;;;;;;1973883;73;20114;-78
2022/11/23 04:16:16;;;;;;;;;;;3.30;99.90;;;;;;1973861;73;20106;-78
2022/11/23 04:18:43;;;;;;;;;;;3.40;99.90;;;;;;1974007;73;20326;-78
2022/11/23 04:21:09;;;;;;;;;;;3.40;99.90;;;;;;1973821;73;20141;-77
2022/11/23 04:23:36;;;;;;;;;;;3.30;99.90;;;;;;1973776;73;20367;-79
2022/11/23 04:26:03;;;;;;;;;;;3.40;99.90;;;;;;1973766;73;20114;-78
2022/11/23 04:28:29;;;;;;;;;;;3.60;99.90;;;;;;1973806;73;20142;-78
2022/11/23 04:30:57;;;;;;;;;;;3.60;99.90;;;;;;1973859;73;20184;-78
2022/11/23 04:33:24;;;;;;;;;;;3.60;99.90;;;;;;1973847;73;20112;-78
2022/11/23 04:35:51;;;;;;;;;;;3.40;99.90;;;;;;1973766;73;20146;-78
2022/11/23 04:38:18;;;;;;;;;;;3.50;99.90;;;;;;1973966;73;20110;-78
2022/11/23 04:40:47;;;;;;;;;;;3.50;99.90;;;;;;1973809;73;20208;-79
2022/11/23 04:43:13;;;;;;;;;;;3.40;99.90;;;;;;1973758;73;20137;-76
2022/11/23 04:45:41;;;;;;;;;;;3.40;99.90;;;;;;1973828;73;20144;-78
2022/11/23 04:48:07;;;;;;;;;;;3.30;99.90;;;;;;1973947;73;20110;-78
2022/11/23 04:50:37;;;;;;;;;;;3.40;99.90;;;;;;1973821;73;20148;-81
2022/11/23 04:53:03;;;;;;;;;;;3.40;99.90;;;;;;1973047;73;20158;-78
2022/11/23 04:55:30;;;;;;;;;;;3.40;99.90;;;;;;1973812;73;20391;-78
2022/11/23 04:57:57;;;;;;;;;;;3.50;99.90;;;;;;1973815;73;20110;-78
2022/11/23 05:00:23;;;;;;;;;;;3.50;99.90;;;;;;1973932;73;20330;-77
2022/11/23 05:02:50;;;;;;;;;;;3.60;99.90;;;;;;1973906;73;20175;-76
2022/11/23 05:05:17;;;;;;;;;;;3.60;99.90;;;;;;1973916;73;20329;-77
2022/11/23 05:07:43;;;;;;;;;;;3.50;99.90;;;;;;1973907;73;20122;-78
2022/11/23 05:10:10;;;;;;;;;;;3.60;99.90;;;;;;1974197;73;20136;-78
2022/11/23 05:12:37;;;;;;;;;;;3.60;99.90;;;;;;1973868;73;20109;-78
2022/11/23 05:15:04;;;;;;;;;;;3.50;99.90;;;;;;1973837;73;20110;-80
2022/11/23 05:17:33;;;;;;;;;;;3.60;99.90;;;;;;1973889;73;20154;-77
2022/11/23 05:19:59;;;;;;;;;;;3.60;99.90;;;;;;1973919;73;20103;-78
2022/11/23 05:22:26;;;;;;;;;;;3.40;99.90;;;;;;1973801;73;20098;-76
2022/11/23 05:24:53;;;;;;;;;;;3.40;99.90;;;;;;1973852;73;20103;-77
2022/11/23 05:27:19;;;;;;;;;;;3.30;99.90;;;;;;1973978;73;20110;-78
2022/11/23 05:29:46;;;;;;;;;;;3.20;99.90;;;;;;1973811;73;20148;-77
2022/11/23 05:32:13;;;;;;;;;;;3.10;99.90;;;;;;1973840;73;20189;-78
2022/11/23 05:34:39;;;;;;;;;;;3.10;99.90;;;;;;1973816;73;20172;-77
2022/11/23 05:37:06;;;;;;;;;;;3.00;99.90;;;;;;1973716;73;20168;-78
2022/11/23 05:39:33;;;;;;;;;;;3.10;99.90;;;;;;1973836;73;20099;-78
2022/11/23 05:42:00;;;;;;;;;;;3.10;99.90;;;;;;1973715;73;20099;-78
2022/11/23 05:44:26;;;;;;;;;;;3.10;99.90;;;;;;1973731;73;20181;-72
2022/11/23 05:46:53;;;;;;;;;;;3.00;99.90;;;;;;1973769;73;20107;-79
2022/11/23 05:49:20;;;;;;;;;;;3.00;99.90;;;;;;1973817;73;20127;-77
2022/11/23 05:51:46;;;;;;;;;;;3.00;99.90;;;;;;1973869;73;20153;-79
2022/11/23 05:54:13;;;;;;;;;;;3.00;99.90;;;;;;1973740;73;20095;-77
2022/11/23 05:56:40;;;;;;;;;;;2.90;99.90;;;;;;1973769;73;20103;-78
2022/11/23 05:59:06;;;;;;;;;;;2.90;99.90;;;;;;1973770;73;20099;-81
2022/11/23 06:01:33;;;;;;;;;;;2.90;99.90;;;;;;1973898;73;20106;-78
2022/11/23 06:04:01;;;;;;;;;;;2.80;99.90;;;;;;1973790;73;20130;-71
2022/11/23 06:06:27;;;;;;;;;;;2.90;99.90;;;;;;1973760;73;20172;-71
2022/11/23 06:08:54;;;;;;;;;;;3.00;99.90;;;;;;1973882;73;20179;-71
2022/11/23 06:11:21;;;;;;;;;;;3.00;99.90;;;;;;1973785;73;20137;-72
2022/11/23 06:13:47;;;;;;;;;;;3.10;99.90;;;;;;1973690;73;20148;-69
2022/11/23 06:16:15;;;;;;;;;;;3.10;99.90;;;;;;1973726;73;20179;-70
2022/11/23 06:18:41;;;;;;;;;;;3.10;99.90;;;;;;1973722;73;20153;-71
2022/11/23 06:21:08;;;;;;;;;;;3.10;99.90;;;;;;1973875;73;20318;-73
2022/11/23 06:23:35;;;;;;;;;;;3.10;99.90;;;;;;1973817;73;20122;-73
2022/11/23 06:26:02;;;;;;;;;;;3.00;99.90;;;;;;1973930;73;20373;-74
2022/11/23 06:28:28;;;;;;;;;;;3.00;99.90;;;;;;1973813;73;20114;-73
2022/11/23 06:30:55;;;;;;;;;;;3.00;99.90;;;;;;1973903;73;20351;-72
2022/11/23 06:33:22;;;;;;;;;;;3.00;99.90;;;;;;1973745;73;20193;-73
2022/11/23 06:35:52;;;;;;;;;;;3.00;99.90;;;;;;1973773;73;20103;-71
2022/11/23 06:38:19;;;;;;;;;;;3.00;99.90;;;;;;1973758;73;20314;-73
2022/11/23 06:40:46;;;;;;;;;;;3.00;99.90;;;;;;1973800;73;20111;-72
2022/11/23 06:43:13;;;;;;;;;;;3.00;99.90;;;;;;1973706;73;20358;-73
2022/11/23 06:45:39;;;;;;;;;;;2.90;99.90;;;;;;1973567;73;20175;-71
2022/11/23 06:48:06;;;;;;;;;;;2.90;99.90;;;;;;1973779;73;20366;-71
2022/11/23 06:50:33;;;;;;;;;;;2.90;99.90;;;;;;1973627;73;20141;-73
2022/11/23 06:53:00;;;;;;;;;;;2.80;99.90;;;;;;1973884;73;20424;-72
2022/11/23 06:55:27;;;;;;;;;;;2.80;99.90;;;;;;1973885;73;20258;-74
2022/11/23 06:57:55;;;;;;;;;;;2.80;99.90;;;;;;1973875;73;20110;-72
2022/11/23 07:00:22;;;;;;;;;;;2.80;99.90;;;;;;1973843;73;20187;-73
2022/11/23 07:02:52;;;;;;;;;;;2.80;99.90;;;;;;1973862;73;20320;-74
2022/11/23 07:05:19;;;;;;;;;;;2.80;99.90;;;;;;1973753;73;20148;-73
2022/11/23 07:07:45;;;;;;;;;;;2.70;99.90;;;;;;1973842;73;20110;-74
2022/11/23 07:10:12;;;;;;;;;;;2.70;99.90;;;;;;1973837;73;20200;-73
2022/11/23 07:12:39;;;;;;;;;;;2.70;99.90;;;;;;1973982;73;20102;-74
2022/11/23 07:15:06;;;;;;;;;;;2.70;99.90;;;;;;1973845;73;20114;-72
2022/11/23 07:17:33;;;;;;;;;;;2.80;99.90;;;;;;1973871;73;20098;-74
2022/11/23 07:20:00;;;;;;;;;;;2.80;99.90;;;;;;1947161;73;20130;-73
2022/11/23 07:22:26;;;;;;;;;;;2.80;99.90;;;;;;1973812;73;20106;-74
2022/11/23 07:24:53;;;;;;;;;;;2.80;99.90;;;;;;1973721;73;20122;-73
2022/11/23 07:27:20;;;;;;;;;;;2.80;99.90;;;;;;1973864;73;20114;-72
2022/11/23 07:29:47;;;;;;;;;;;2.80;99.90;;;;;;1973951;73;20158;-74
2022/11/23 07:32:14;;;;;;;;;;;2.70;99.90;;;;;;1973807;73;20118;-73
2022/11/23 07:34:41;;;;;;;;;;;2.70;99.90;;;;;;1973788;73;20330;-74
2022/11/23 07:37:07;;;;;;;;;;;2.70;99.90;;;;;;1973845;73;20157;-73
2022/11/23 07:39:34;;;;;;;;;;;2.80;99.90;;;;;;1973789;73;20100;-73
2022/11/23 07:42:01;;;;;;;;;;;2.80;99.90;;;;;;1973905;73;20362;-73
2022/11/23 07:44:28;;;;;;;;;;;2.80;99.90;;;;;;1973874;73;20106;-73
2022/11/23 07:46:54;;;;;;;;;;;2.70;99.90;;;;;;1973818;73;20338;-72
2022/11/23 07:49:21;;;;;;;;;;;2.70;99.90;;;;;;1973870;73;20169;-73
2022/11/23 07:51:48;;;;;;;;;;;2.80;99.90;;;;;;1973826;73;20329;-73
2022/11/23 07:54:16;;;;;;;;;;;2.80;99.90;;;;;;1974005;73;20114;-73
2022/11/23 07:56:43;;;;;;;;;;;2.90;99.90;;;;;;1973887;73;20131;-74
2022/11/23 07:59:09;;;;;;;;;;;2.90;99.90;;;;;;1973972;73;20319;-73
2022/11/23 08:01:36;;;;;;;;;;;3.10;99.90;;;;;;1975553;73;20135;-73
2022/11/23 08:04:03;;;;;;;;;;;3.10;99.90;;;;;;1975660;73;20318;-72
2022/11/23 08:06:30;;;;;;;;;;;3.20;99.90;;;;;;1974607;73;20364;-74
2022/11/23 08:08:58;;;;;;;;;;;3.30;99.90;;;;;;1974297;73;20127;-73
2022/11/23 08:11:25;;;;;;;;;;;3.30;99.90;;;;;;1974322;73;20142;-73
2022/11/23 08:13:51;;;;;;;;;;;3.40;99.90;;;;;;1974144;73;20122;-72
2022/11/23 08:16:18;;;;;;;;;;;3.50;99.90;;;;;;1974161;73;20191;-73
2022/11/23 08:18:45;;;;;;;;;;;3.60;99.90;;;;;;1974116;73;20142;-73
2022/11/23 08:21:12;;;;;;;;;;;3.70;99.90;;;;;;1974133;73;20219;-73
2022/11/23 08:23:39;;;;;;;;;;;3.70;99.90;;;;;;1974106;73;20118;-71
2022/11/23 08:26:06;;;;;;;;;;;3.90;99.90;;;;;;1974313;73;20098;-72
2022/11/23 08:28:32;;;;;;;;;;;4.00;99.90;;;;;;1974232;73;20171;-72
2022/11/23 08:31:01;;;;;;;;;;;4.10;99.90;;;;;;1974127;73;20156;-72
2022/11/23 08:33:27;;;;;;;;;;;4.40;99.90;;;;;;1973729;73;20099;-72
2022/11/23 08:35:54;;;;;;;;;;;4.60;99.90;;;;;;1974450;73;20383;-74
2022/11/23 08:38:21;;;;;;;;;;;4.70;99.90;;;;;;1974459;73;20102;-70
2022/11/23 08:40:47;;;;;;;;;;;4.80;99.90;;;;;;1974323;73;20420;-73
2022/11/23 08:43:14;;;;;;;;;;;4.90;99.90;;;;;;1974345;73;20177;-73
2022/11/23 08:45:41;;;;;;;;;;;5.00;99.90;;;;;;1974308;73;20322;-73
2022/11/23 08:48:07;;;;;;;;;;;5.10;99.90;;;;;;1974170;73;20106;-73
2022/11/23 08:50:35;;;;;;;;;;;5.30;99.90;;;;;;1974135;73;20122;-73
2022/11/23 08:53:02;;;;;;;;;;;5.30;99.90;;;;;;1973995;73;20409;-73
2022/11/23 08:55:29;;;;;;;;;;;5.50;99.90;;;;;;1974034;73;20099;-72
2022/11/23 08:57:56;;;;;;;;;;;5.60;99.90;;;;;;1973888;73;20200;-73
2022/11/23 09:00:23;;;;;;;;;;;5.80;99.90;;;;;;1973876;73;20114;-73
2022/11/23 09:02:50;;;;;;;;;;;5.90;99.90;;;;;;1973891;73;20353;-74
2022/11/23 09:05:17;;;;;;;;;;;6.10;99.90;;;;;;1974045;73;20114;-73
2022/11/23 09:07:43;;;;;;;;;;;6.00;99.90;;;;;;1973965;73;20342;-74
2022/11/23 09:10:10;;;;;;;;;;;6.40;99.90;;;;;;1974030;73;20145;-72
2022/11/23 09:12:37;;;;;;;;;;;6.10;99.90;;;;;;1973780;73;20341;-73
2022/11/23 09:15:03;;;;;;;;;;;6.20;99.90;;;;;;1973927;73;20106;-73
2022/11/23 09:17:31;;;;;;;;;;;6.40;99.90;;;;;;1973996;73;20110;-73
2022/11/23 09:19:58;;;;;;;;;;;6.50;99.90;;;;;;1974380;73;20114;-73
2022/11/23 09:22:25;;;;;;;;;;;6.70;99.90;;;;;;1973902;73;20121;-72
2022/11/23 09:24:52;;;;;;;;;;;6.90;99.90;;;;;;1974012;73;20165;-73
2022/11/23 09:27:19;;;;;;;;;;;7.00;99.90;;;;;;1973902;73;20165;-73
2022/11/23 09:29:45;;;;;;;;;;;7.30;99.90;;;;;;1973925;73;20340;-73
2022/11/23 09:32:12;;;;;;;;;;;7.10;99.90;;;;;;1973985;73;20138;-72
2022/11/23 09:34:39;;;;;;;;;;;7.40;99.90;;;;;;1973988;73;20175;-73
2022/11/23 09:37:05;;;;;;;;;;;7.80;99.90;;;;;;1973890;73;20104;-72
2022/11/23 09:39:32;;;;;;;;;;;7.80;99.90;;;;;;1973974;73;20169;-74
2022/11/23 09:42:00;;;;;;;;;;;8.20;99.90;;;;;;1974022;73;20114;-74
2022/11/23 09:44:38;;;;;;;;;;;8.20;99.90;;;;;;1974077;73;20372;-73
2022/11/23 09:47:06;;;;;;;;;;;8.30;99.90;;;;;;1974051;73;20339;-72
2022/11/23 09:49:34;;;;;;;;;;;8.00;99.90;;;;;;1973940;73;20179;-72
2022/11/23 09:52:01;;;;;;;;;;;7.80;99.90;;;;;;1973315;73;20140;-73
2022/11/23 09:54:29;;;;;;;;;;;7.80;99.90;;;;;;1973930;73;20169;-73
2022/11/23 09:56:56;;;;;;;;;;;7.90;99.90;;;;;;1973946;73;20118;-71
2022/11/23 09:59:31;;;;;;;;;;;7.80;99.90;;;;;;1973869;73;20201;-73
2022/11/23 10:01:58;;;;;;;;;;;8.00;99.90;;;;;;1973857;73;20102;-72
2022/11/23 10:04:24;;;;;;;;;;;8.30;99.90;;;;;;1973937;73;20106;-73
2022/11/23 10:06:53;;;;;;;;;;;8.30;99.90;;;;;;1973823;73;20114;-73
2022/11/23 10:09:33;;;;;;;;;;;8.30;99.90;;;;;;1973104;73;20137;-72
2022/11/23 10:12:03;;;;;;;;;;;8.30;99.90;;;;;;1973475;73;20131;-73
2022/11/23 10:14:31;;;;;;;;;;;8.20;99.90;;;;;;1973769;73;20139;-73
2022/11/23 10:17:16;;;;;;;;;;;8.40;99.90;;;;;;1973771;73;20349;-72
2022/11/23 10:19:48;;;;;;;;;;;8.60;99.90;;;;;;1973918;73;20165;-71
2022/11/23 10:22:16;;;;;;;;;;;8.60;99.90;;;;;;1973604;73;20121;-72
2022/11/23 10:24:43;;;;;;;;;;;8.90;99.90;;;;;;1969407;73;20223;-72
2022/11/23 10:27:14;;;;;;;;;;;9.10;99.90;;;;;;1973881;73;20326;-73
2022/11/23 10:29:40;;;;;;;;;;;9.10;99.90;;;;;;1974045;73;20368;-73
2022/11/23 10:32:09;;;;;;;;;;;9.40;99.90;;;;;;1973908;73;20110;-72
2022/11/23 10:34:40;;;;;;;;;;;9.40;99.90;;;;;;1973112;73;20106;-73
2022/11/23 10:37:11;;;;;;;;;;;9.60;99.90;;;;;;1973423;73;20118;-73
2022/11/23 10:39:38;;;;;;;;;;;9.70;99.90;;;;;;1973276;73;20148;-71
2022/11/23 10:42:06;;;;;;;;;;;9.50;99.90;;;;;;1973916;73;20110;-72
2022/11/23 10:44:36;;;;;;;;;;;9.80;99.90;;;;;;1973382;73;20179;-73
2022/11/23 10:47:03;;;;;;;;;;;10.00;99.90;;;;;;1973975;73;20106;-71
2022/11/23 10:49:31;;;;;;;;;;;10.10;99.90;;;;;;1974115;73;20317;-73
2022/11/23 10:52:02;;;;;;;;;;;10.60;99.90;;;;;;1973970;73;20199;-72
2022/11/23 10:54:28;;;;;;;;;;;10.70;99.90;;;;;;1973544;73;20351;-72
2022/11/23 10:56:56;;;;;;;;;;;11.10;99.90;;;;;;1973921;73;20141;-72
2022/11/23 10:59:26;;;;;;;;;;;11.20;99.90;;;;;;1973995;73;20408;-72
2022/11/23 11:02:01;;;;;;;;;;;11.20;99.90;;;;;;1974035;73;20189;-72
2022/11/23 11:04:27;;;;;;;;;;;10.90;99.90;;;;;;1971830;73;20333;-73
2022/11/23 11:06:56;;;;;;;;;;;10.80;99.90;;;;;;1974849;73;20114;-72
2022/11/23 11:09:23;;;;;;;;;;;10.70;99.90;;;;;;1971706;73;20153;-73
2022/11/23 11:11:50;;;;;;;;;;;11.30;99.90;;;;;;1947660;73;20114;-72
2022/11/23 11:14:22;;;;;;;;;;;11.10;99.90;;;;;;1947459;73;20114;-73
2022/11/23 11:16:49;;;;;;;;;;;11.30;99.90;;;;;;1974255;73;20099;-73
2022/11/23 11:19:26;;;;;;;;;;;11.20;99.90;;;;;;1974278;73;20122;-73
2022/11/23 11:21:53;;;;;;;;;;;11.20;99.90;;;;;;1974284;73;20187;-73
2022/11/23 11:24:21;;;;;;;;;;;11.40;99.90;;;;;;1974250;73;20329;-72
2022/11/23 11:26:51;;;;;;;;;;;11.50;99.90;;;;;;1974184;73;20135;-73
2022/11/23 11:29:20;;;;;;;;;;;11.70;99.90;;;;;;1974328;73;20102;-72
2022/11/23 11:31:54;;;;;;;;;;;11.50;99.90;;;;;;1973014;73;20182;-73
2022/11/23 11:34:24;;;;;;;;;;;11.20;99.90;;;;;;1973375;73;20114;-72
2022/11/23 11:36:56;;;;;;;;;;;11.50;99.90;;;;;;1974227;73;20109;-72
2022/11/23 11:39:24;;;;;;;;;;;11.70;99.90;;;;;;1974340;73;20106;-73
2022/11/23 11:41:51;;;;;;;;;;;11.60;99.90;;;;;;1974342;73;20354;-72
2022/11/23 11:44:23;;;;;;;;;;;11.90;99.90;;;;;;1974308;73;20166;-72
2022/11/23 11:46:54;;;;;;;;;;;12.10;99.90;;;;;;1974309;73;20122;-72
2022/11/23 11:49:23;;;;;;;;;;;12.20;99.90;;;;;;1973714;73;20146;-72
2022/11/23 11:51:51;;;;;;;;;;;12.20;99.90;;;;;;1974229;73;20353;-72
2022/11/23 11:54:19;;;;;;;;;;;12.00;99.90;;;;;;1974165;73;20140;-72
2022/11/23 11:56:47;;;;;;;;;;;12.40;99.90;;;;;;1974192;73;20114;-72
2022/11/23 11:59:18;;;;;;;;;;;12.50;99.90;;;;;;1974378;73;20161;-73
2022/11/23 12:02:05;;;;;;;;;;;12.40;99.90;;;;;;1973642;73;20314;-73
2022/11/23 12:04:41;;;;;;;;;;;12.20;99.90;;;;;;1972830;73;20165;-72
2022/11/23 12:07:10;;;;;;;;;;;12.20;99.90;;;;;;1974381;73;20110;-70
2022/11/23 12:09:38;;;;;;;;;;;12.00;99.90;;;;;;1973891;73;20114;-72
2022/11/23 12:12:05;;;;;;;;;;;12.30;99.90;;;;;;1974294;73;20106;-72
2022/11/23 12:14:32;;;;;;;;;;;12.30;99.90;;;;;;1973901;73;20118;-72
2022/11/23 12:17:06;;;;;;;;;;;12.00;99.90;;;;;;1973829;73;20187;-72
2022/11/23 12:19:39;;;;;;;;;;;12.20;99.90;;;;;;1973834;73;20098;-72
2022/11/23 12:22:26;;;;;;;;;;;12.30;99.90;;;;;;1974083;73;20095;-71
2022/11/23 12:25:13;;;;;;;;;;;12.50;99.90;;;;;;1973394;73;20144;-72
2022/11/23 12:27:58;;;;;;;;;;;12.10;99.90;;;;;;1973817;73;20133;-73
2022/11/23 12:30:26;;;;;;;;;;;12.60;99.90;;;;;;1973847;73;20188;-72
2022/11/23 12:32:54;;;;;;;;;;;12.70;99.90;;;;;;1953141;73;20114;-72
2022/11/23 12:35:23;;;;;;;;;;;12.70;99.90;;;;;;1973304;73;20106;-72
2022/11/23 12:38:03;;;;;;;;;;;12.70;99.90;;;;;;1963825;73;20143;-73
2022/11/23 12:40:37;;;;;;;;;;;12.70;99.90;;;;;;1972318;73;20122;-73
2022/11/23 12:46:11;;;;;;;;;;;12.50;99.90;;;;;;1950396;74;20116;-73
2022/11/23 12:48:45;;;;;;;;;;;12.20;99.90;;;;;;1950608;74;20201;-71
2022/11/23 12:51:24;;;;;;;;;;;12.10;99.90;;;;;;1949922;73;20205;-71
2022/11/23 12:53:55;;;;;;;;;;;11.90;99.90;;;;;;1950395;74;20100;-71
2022/11/23 12:56:23;;;;;;;;;;;12.20;99.90;;;;;;1950269;74;20139;-72
2022/11/23 12:58:50;;;;;;;;;;;12.90;99.90;;;;;;1949968;73;20123;-71
2022/11/23 13:01:19;;;;;;;;;;;13.20;99.90;;;;;;1950462;74;20107;-72
2022/11/23 13:04:04;;;;;;;;;;;12.70;99.90;;;;;;1951049;74;20116;-71
2022/11/23 13:06:32;;;;;;;;;;;13.00;99.90;;;;;;1951094;74;20101;-71
2022/11/23 13:09:06;;;;;;;;;;;12.70;99.90;;;;;;1951248;74;20115;-72
2022/11/23 13:11:38;;;;;;;;;;;12.30;99.90;;;;;;1950363;74;20361;-72
2022/11/23 13:14:09;;;;;;;;;;;12.70;99.90;;;;;;1905233;74;20382;-72
2022/11/23 13:16:56;;;;;;;;;;;13.00;99.90;;;;;;1950383;74;20158;-71
2022/11/23 13:19:24;;;;;;;;;;;12.90;99.90;;;;;;1950379;74;20191;-72
2022/11/23 13:21:51;;;;;;;;;;;13.00;99.90;;;;;;1950489;74;20335;-74
2022/11/23 13:24:24;;;;;;;;;;;13.00;99.90;;;;;;1950465;74;20123;-73
2022/11/23 13:27:09;;;;;;;;;;;13.30;99.90;;;;;;1950443;74;20154;-73
2022/11/23 13:29:38;;;;;;;;;;;13.50;99.90;;;;;;1950519;74;20100;-72
2022/11/23 13:32:23;;;;;;;;;;;13.30;99.90;;;;;;1946589;73;20408;-73
2022/11/23 13:34:50;;;;;;;;;;;13.60;99.90;;;;;;1950426;74;20104;-73
2022/11/23 13:37:22;;;;;;;;;;;13.30;99.90;;;;;;1950445;74;20100;-73
2022/11/23 13:39:52;;;;;;;;;;;12.90;99.90;;;;;;1950300;73;20199;-72
2022/11/23 13:42:19;;;;;;;;;;;13.10;99.90;;;;;;1950459;74;20112;-72
2022/11/23 13:44:45;;;;;;;;;;;13.00;99.90;;;;;;1924286;74;20124;-72
2022/11/23 13:47:14;;;;;;;;;;;13.10;99.90;;;;;;1950561;74;20323;-72
2022/11/23 13:49:42;;;;;;;;;;;13.40;99.90;;;;;;1950426;74;20109;-72
2022/11/23 13:52:16;;;;;;;;;;;13.40;99.90;;;;;;1950419;74;20326;-72
2022/11/23 13:54:44;;;;;;;;;;;13.20;99.90;;;;;;1949018;73;20347;-73
2022/11/23 13:57:11;;;;;;;;;;;13.20;99.90;;;;;;1948918;73;20120;-72
2022/11/23 13:59:38;;;;;;;;;;;13.20;99.90;;;;;;1950536;74;20324;-71
2022/11/23 14:02:09;;;;;;;;;;;13.10;99.90;;;;;;1950516;74;20158;-73
2022/11/23 14:04:37;;;;;;;;;;;13.00;99.90;;;;;;1950362;74;20162;-72
2022/11/23 14:07:27;;;;;;;;;;;13.00;99.90;;;;;;1950507;74;20101;-71
2022/11/23 14:09:55;;;;;;;;;;;13.20;99.90;;;;;;1949707;74;20328;-72
2022/11/23 14:12:24;;;;;;;;;;;13.60;99.90;;;;;;1950478;74;20101;-74
2022/11/23 14:14:58;;;;;;;;;;;13.50;99.90;;;;;;1950297;74;20178;-74
2022/11/23 14:17:27;;;;;;;;;;;13.70;99.90;;;;;;1950379;74;20198;-73
2022/11/23 14:20:10;;;;;;;;;;;13.50;99.90;;;;;;1950317;74;20142;-71
2022/11/23 14:22:54;;;;;;;;;;;13.60;99.90;;;;;;1873621;76;20212;-72
2022/11/23 14:25:22;;;;;;;;;;;13.70;99.90;;;;;;1933808;74;20207;-72
2022/11/23 14:28:07;;;;;;;;;;;13.10;99.90;;;;;;1950326;74;20154;-72
2022/11/23 14:30:38;;;;;;;;;;;13.00;99.90;;;;;;1950513;74;20105;-72
2022/11/23 14:33:09;;;;;;;;;;;12.60;99.90;;;;;;1950341;74;20193;-73
2022/11/23 14:35:47;;;;;;;;;;;12.40;99.90;;;;;;1950042;73;20357;-73